Brazoria County Airport
KLBX : now visible

Airfield :











YOU CAN JOIN US ON...

 
LOGIN :

Register | Disclaimer

   EN    FR    IT 

 









Legend :    VFR   Marginal VFR   IFR   Intensive IFR   Very Intensive IFR
Visi :
Ceiling :
>= 8 km
>= 3000ft
5 to 8 km
1000 to 3000 ft
1500m to 5 km
500 to 1000 ft
800 to 1500m
200 to 500 ft
< 800m
< 200 ft
Symbols :   Thunderstorms  Fog  Heavy snow  Heavy precipitations  Wind > 20 kt






- Airport Elevation : 25 ft


KLBX - Brazoria County

CURRENT METAR :
  • 192011Z AUTO 17016KT 10SM SCT025 31/23 A2998 RMK AO2 T03060228

EXPIRED METARs :
  • 191953Z AUTO 18015KT 10SM BKN025 BKN035 31/23 A2998 RMK AO2 LTG DSNT NW SLP153 T03060228
  • 191853Z AUTO 18016KT 10SM FEW025 SCT030 BKN038 30/23 A3000 RMK AO2 SLP160 T03000228
  • 191753Z AUTO 16012KT 10SM SCT026 SCT030 BKN037 29/23 A3003 RMK AO2 SLP168 60001 T02890228 10306 20250 58004

TAF KLBX
Valid from the 19 at 20:00 until the 20 at 18:00 UTC


192005Z 1920/2018 18014KT P6SM BKN025 BKN035
FM200800 VRB04KT 6SM BR FEW020 BKN035
FM201200 VRB03KT P6SM BKN035
KZHU FIR / North America



MET'MAP, your aeronautical weather chart ! - Copyright ORBIFLY December 2007 - Disclaimer

ORBIFLY MET'MAP TEAM :

Programming & Development : Alexandra Zaïnal
Concept & original design : Baudouin d'Aumeries
Assistance for programming : Marc-Olivier Méhu
Technical & hardware support : Manuel Goepfert

Contact : metmap@orbifly.com




SOURCES & CREDITS :

   NOAA       Earth
Advisory